ADDS METAR Data INFO
IDs: Format: Raw Decoded Include TAF

Data at: 1208 UTC 21 Jun 2018

KFLP 211156Z AUTO 00000KT 10SM CLR 20/19 A2986 RMK AO2 SLP107 7//// T02000194 10217 20189 53007
KFLP 211056Z AUTO 00000KT 10SM CLR 19/19 A2985 RMK AO2 SLP103 T01940189
KFLP 210956Z AUTO 00000KT 10SM CLR 20/19 A2984 RMK AO2 SLP099 T02000194
KFLP 210856Z AUTO 25003KT 10SM CLR 21/20 A2984 RMK AO2 SLP099 T02060200 56011
KFLP 210836Z AUTO 24003KT 10SM SCT025 21/20 A2984 RMK AO2
KFLP 210756Z AUTO 24004KT 10SM OVC025 21/20 A2984 RMK AO2 SLP099 T02110200
KFLP 210656Z AUTO 21003KT 10SM BKN023 OVC029 21/20 A2986 RMK AO2 SLP105 T02110200
KFLP 210615Z AUTO 00000KT 10SM BKN023 21/20 A2987 RMK AO2
KFLP 210556Z AUTO 24003KT 10SM SCT025 BKN080 21/21 A2988 RMK AO2 SLP111 60003 T02110206 10233 20211 402720206 55004
KFLP 210527Z AUTO 24004KT 10SM SCT025 22/21 A2987 RMK AO2
KFLP 210456Z AUTO 23003KT 10SM OVC025 22/21 A2987 RMK AO2 SLP109 P0001 T02170206
KFLP 210356Z AUTO VRB03KT 10SM BKN027 22/21 A2988 RMK AO2 RAE37 SLP110 P0002 T02220211
KFLP 210256Z AUTO 11003KT 10SM -RA BKN021 BKN026 OVC065 22/21 A2989 RMK AO2 RAB50 SLP113 P0000 60000 T02220211 56000
KFLP 210251Z AUTO 12003KT 9SM -RA BKN025 BKN065 OVC085 22/21 A2989 RMK AO2 RAB50 P0000
KFLP 210156Z AUTO VRB03KT 10SM FEW090 BKN120 22/21 A2986 RMK AO2 RAE13 SLP104 P0000 T02170211
KFLP 210114Z AUTO 12003KT 10SM FEW008 BKN060 OVC070 22/22 A2988 RMK AO2 RAE13 P0000
KFLP 210056Z AUTO 00000KT 7SM -RA FEW036 BKN055 OVC065 23/22 A2989 RMK AO2 RAB35 SLP114 P0000 T02280217
KFLP 202356Z AUTO 25004KT 10SM SCT055 OVC075 23/21 A2989 RMK AO2 RAE41 SLP115 P0003 60005 T02330211 10267 20217 51004
KFLP 202256Z AUTO 23004KT 9SM RA OVC048 25/21 A2989 RMK AO2 RAB30 SLP113 P0000 T02500211
KFLP 202156Z AUTO 30003KT 10SM CLR 27/22 A2989 RMK AO2 SLP113 T02670217
KFLP 202106Z AUTO 12005KT 10SM FEW009 26/22 A2987 RMK AO2
KFLP 202056Z AUTO 09004KT 10SM FEW100 26/22 A2988 RMK AO2 SLP109 60002 T02560222 58025
KFLP 202005Z AUTO 02004KT 10SM FEW006 BKN080 25/22 A2991 RMK AO2
KFLP 201956Z AUTO 02005KT 10SM BKN075 BKN090 24/22 A2992 RMK AO2 SLP124 T02440222
KFLP 201856Z AUTO 00000KT 10SM FEW020 SCT055 OVC070 23/22 A2993 RMK AO2 LTG DSNT NW RAE23 SLP129 P0002 T02330217
KFLP 201756Z AUTO 00000KT 10SM -RA FEW012 BKN055 OVC065 22/21 A2995 RMK AO2 SLP136 6//// T02170206 10272 20206 50001
KFLP 201748Z AUTO 00000KT 10SM FEW012 BKN050 OVC060 22/21 A2995 RMK AO2 RAE40
KFLP 201708Z AUTO VRB05KT 4SM +RA BR BKN018 BKN028 OVC034 21/20 A2996 RMK AO2 PNO $
KFLP 201656Z AUTO 21009G14KT 7SM +RA SCT028 OVC034 22/19 A2996 RMK AO2 RAB16E26B46 SLP141 P0000 T02170194
KFLP 201556Z AUTO 20004KT 10SM FEW036 SCT045 OVC065 27/22 A2995 RMK AO2 RAB18E52 SLP133 P0000 T02670217
KFLP 201456Z AUTO 14003KT 10SM OVC080 26/22 A2995 RMK AO2 SLP132 T02560217 58001
KFLP 201356Z AUTO 00000KT 10SM BKN080 BKN120 24/21 A2995 RMK AO2 SLP135 T02440211
KFLP 201256Z AUTO 00000KT 10SM BKN080 OVC090 23/21 A2995 RMK AO2 SLP135 T02280211
KFLP 201156Z AUTO 00000KT 10SM OVC090 22/21 A2995 RMK AO2 SLP133 T02170206 10228 20206 51006
KFLP 201056Z AUTO 00000KT 10SM CLR 21/19 A2995 RMK AO2 SLP133 T02060194
KFLP 200856Z AUTO 00000KT 10SM CLR 22/20 A2993 RMK AO2 SLP129 T02170200 56010
KFLP 200756Z AUTO 16003KT 10SM CLR 21/20 A2994 RMK AO2 SLP129 T02110200
KFLP 200656Z AUTO 00000KT 10SM CLR 22/20 A2995 RMK AO2 SLP134 T02170200
KFLP 200556Z AUTO 02003KT 10SM CLR 22/21 A2997 RMK AO2 SLP140 T02220206 10300 20222 403170217 53006
KFLP 200456Z AUTO 00000KT 10SM CLR 23/21 A2996 RMK AO2 SLP135 T02280206
KFLP 200356Z AUTO 00000KT 10SM CLR 24/21 A2995 RMK AO2 SLP133 T02390206
KFLP 200256Z AUTO 00000KT 10SM CLR 26/20 A2995 RMK AO2 SLP133 T02560200 55001
KFLP 200156Z AUTO 00000KT 10SM CLR 27/20 A2994 RMK AO2 SLP131 T02670200
KFLP 200056Z AUTO 18003KT 10SM CLR 28/20 A2995 RMK AO2 SLP135 T02830200